createdAt,value
2022-08-19T00:00:55.130Z,79.61
2022-08-19T00:03:25.581Z,80.33
2022-08-19T00:05:55.689Z,80.49
2022-08-19T00:08:26.610Z,81.04
2022-08-19T00:10:57.078Z,82.48
2022-08-19T00:13:28.969Z,82.90
2022-08-19T00:16:00.935Z,83.37
2022-08-19T00:18:31.621Z,84.57
2022-08-19T00:21:02.808Z,85.27
2022-08-19T00:23:34.124Z,85.78
2022-08-19T00:26:05.754Z,86.75
2022-08-19T00:28:46.280Z,86.83
2022-08-19T00:31:18.484Z,86.83
2022-08-19T00:33:50.140Z,87.41
2022-08-19T00:36:20.690Z,84.13
2022-08-19T00:38:51.754Z,81.94
2022-08-19T00:41:25.259Z,84.80
2022-08-19T00:44:08.739Z,86.90
2022-08-19T00:46:41.304Z,87.82
2022-08-19T00:49:23.574Z,88.22
2022-08-19T00:52:15.435Z,88.13
2022-08-19T00:54:50.775Z,88.89
2022-08-19T00:57:37.547Z,89.39
2022-08-19T01:00:15.288Z,89.75
2022-08-19T01:02:46.607Z,90.17
2022-08-19T01:05:23.009Z,91.34
2022-08-19T01:07:53.827Z,91.86
2022-08-19T01:10:33.548Z,92.18
2022-08-19T01:13:07.770Z,92.97
2022-08-19T01:15:52.935Z,94.13
2022-08-19T01:18:23.974Z,92.25
2022-08-19T01:20:56.897Z,92.83
2022-08-19T01:23:44.638Z,93.05
2022-08-19T01:26:19.955Z,92.34
2022-08-19T01:28:53.576Z,91.51
2022-08-19T01:31:28.564Z,91.07
2022-08-19T01:34:00.741Z,90.78
2022-08-19T01:36:34.951Z,91.28
2022-08-19T01:39:10.062Z,90.46
2022-08-19T01:41:40.839Z,90.12
2022-08-19T01:44:18.580Z,90.84
2022-08-19T01:46:50.849Z,91.03
2022-08-19T01:49:23.961Z,88.55
2022-08-19T01:51:56.964Z,87.78
2022-08-19T01:54:28.485Z,88.65
2022-08-19T01:57:06.728Z,88.25
2022-08-19T01:59:38.666Z,87.17
2022-08-19T02:02:12.692Z,86.88
2022-08-19T02:04:43.530Z,86.52
2022-08-19T02:07:13.633Z,86.64
2022-08-19T02:09:43.932Z,87.27
2022-08-19T02:12:14.657Z,86.94
2022-08-19T02:14:45.751Z,86.39
2022-08-19T02:17:16.394Z,85.25
2022-08-19T02:19:46.324Z,84.54
2022-08-19T02:22:17.157Z,85.45
2022-08-19T02:24:48.734Z,85.88
2022-08-19T02:27:19.096Z,86.63
2022-08-19T02:29:51.106Z,87.40
2022-08-19T02:32:22.805Z,88.00
2022-08-19T02:34:53.474Z,87.22
2022-08-19T02:37:42.355Z,85.89
2022-08-19T02:40:13.299Z,85.40
2022-08-19T02:42:45.198Z,84.90
2022-08-19T02:45:17.239Z,84.02
2022-08-19T02:47:47.991Z,84.26
2022-08-19T02:50:18.536Z,84.16
2022-08-19T02:52:48.660Z,83.97
2022-08-19T02:55:19.249Z,83.75
2022-08-19T02:57:50.249Z,83.70
2022-08-19T03:00:21.062Z,83.31
2022-08-19T03:02:51.297Z,82.97
2022-08-19T03:05:25.242Z,84.21
2022-08-19T03:08:14.583Z,84.52
2022-08-19T03:10:47.548Z,85.00
2022-08-19T03:13:20.184Z,86.15
2022-08-19T03:15:51.213Z,87.09
2022-08-19T03:18:23.261Z,87.27
2022-08-19T03:20:56.698Z,86.40
2022-08-19T03:23:27.040Z,85.58
2022-08-19T03:26:03.282Z,85.80
2022-08-19T03:28:58.121Z,87.03
2022-08-19T03:31:44.462Z,88.58
2022-08-19T03:34:29.604Z,89.39
2022-08-19T03:37:05.785Z,87.48
2022-08-19T03:39:38.742Z,86.51
2022-08-19T03:42:38.559Z,86.40
2022-08-19T03:45:00.658Z,86.15
2022-08-19T03:47:30.675Z,85.86
2022-08-19T03:50:01.449Z,85.49
2022-08-19T03:52:31.786Z,85.03
2022-08-19T03:55:02.359Z,84.67
2022-08-19T03:57:32.395Z,85.09
2022-08-19T04:00:12.487Z,85.85
2022-08-19T04:02:58.336Z,85.51
2022-08-19T04:05:31.894Z,85.19
2022-08-19T04:08:02.744Z,85.19
2022-08-19T04:10:33.636Z,85.41
2022-08-19T04:13:04.355Z,85.44
2022-08-19T04:15:41.135Z,85.35
2022-08-19T04:18:12.753Z,85.77
2022-08-19T04:20:46.169Z,86.47
2022-08-19T04:23:17.471Z,86.60
2022-08-19T04:25:48.067Z,86.51
2022-08-19T04:28:18.318Z,86.82
2022-08-19T04:30:52.316Z,86.55
2022-08-19T04:33:26.687Z,86.40
2022-08-19T04:36:00.498Z,86.30
2022-08-19T04:38:30.854Z,86.87
2022-08-19T04:41:20.349Z,87.95
2022-08-19T04:43:51.072Z,88.08
2022-08-19T04:46:39.652Z,87.92
2022-08-19T04:49:13.106Z,87.51
2022-08-19T04:51:46.501Z,86.94
2022-08-19T04:54:30.943Z,87.03
2022-08-19T04:57:11.925Z,86.77
2022-08-19T04:59:42.257Z,87.57
2022-08-19T05:02:12.684Z,88.58
2022-08-19T05:04:43.599Z,87.53
2022-08-19T05:07:13.775Z,87.40
2022-08-19T05:09:58.076Z,87.15
2022-08-19T05:12:30.947Z,87.92
2022-08-19T05:15:03.016Z,88.56
2022-08-19T05:17:38.107Z,89.26
2022-08-19T05:20:28.499Z,88.76
2022-08-19T05:22:59.128Z,90.19
2022-08-19T05:25:29.710Z,90.72
2022-08-19T05:28:00.111Z,91.14
2022-08-19T05:30:46.108Z,91.15
2022-08-19T05:33:18.055Z,90.10
2022-08-19T05:35:50.510Z,89.86
2022-08-19T05:38:21.465Z,90.53
2022-08-19T05:40:51.683Z,91.72
2022-08-19T05:43:22.616Z,92.77
2022-08-19T05:45:52.985Z,93.24
2022-08-19T05:48:23.551Z,93.77
2022-08-19T05:50:53.560Z,94.06
2022-08-19T05:53:24.126Z,94.49
2022-08-19T05:55:54.877Z,95.13
2022-08-19T05:58:27.106Z,95.95
2022-08-19T06:00:58.599Z,96.48
2022-08-19T06:03:29.410Z,96.82
2022-08-19T06:06:01.724Z,97.39
2022-08-19T06:08:34.026Z,97.28
2022-08-19T06:11:25.860Z,98.34
2022-08-19T06:14:00.330Z,98.59
2022-08-19T06:16:33.882Z,98.90
2022-08-19T06:19:08.844Z,99.20
2022-08-19T06:21:42.631Z,99.54
2022-08-19T06:24:16.446Z,99.96
2022-08-19T06:29:27.804Z,99.99
2022-08-19T06:32:00.830Z,99.99
2022-08-19T06:34:31.991Z,99.99
2022-08-19T06:37:04.196Z,99.99
2022-08-19T06:39:38.117Z,99.99
2022-08-19T06:42:11.944Z,99.99
2022-08-19T06:44:48.190Z,99.99
2022-08-19T06:47:25.334Z,99.99
2022-08-19T06:50:05.611Z,99.99
2022-08-19T06:52:38.261Z,99.99
2022-08-19T06:55:09.463Z,99.99
2022-08-19T06:57:40.357Z,99.99
2022-08-19T07:00:18.058Z,99.99
2022-08-19T07:02:53.353Z,99.99
2022-08-19T07:05:25.847Z,99.99
2022-08-19T07:07:57.022Z,99.99
2022-08-19T07:10:28.887Z,99.99
2022-08-19T07:12:59.157Z,99.99
2022-08-19T07:15:29.382Z,99.99
2022-08-19T07:18:00.076Z,99.99
2022-08-19T07:20:30.766Z,99.99
2022-08-19T07:23:01.205Z,99.99
2022-08-19T07:25:32.463Z,99.99
2022-08-19T07:28:03.890Z,99.99
2022-08-19T07:30:34.757Z,99.99
2022-08-19T07:33:04.688Z,99.99
2022-08-19T07:35:36.118Z,99.99
2022-08-19T07:38:06.530Z,99.99
2022-08-19T07:40:37.089Z,99.99
2022-08-19T07:43:10.163Z,99.99
2022-08-19T07:45:44.540Z,99.99
2022-08-19T07:48:16.652Z,99.99
2022-08-19T07:50:47.614Z,99.99
2022-08-19T07:53:17.659Z,99.99
2022-08-19T07:55:48.034Z,99.99
2022-08-19T07:58:22.031Z,99.99
2022-08-19T08:00:54.201Z,99.99
2022-08-19T08:03:47.975Z,99.99
2022-08-19T08:06:37.140Z,99.99
2022-08-19T08:09:16.426Z,99.99
2022-08-19T08:12:05.002Z,99.99
2022-08-19T08:14:46.164Z,99.99
2022-08-19T08:17:31.038Z,99.99
2022-08-19T08:20:13.542Z,99.99
2022-08-19T08:23:07.490Z,99.99
2022-08-19T08:25:38.731Z,99.99
2022-08-19T08:28:11.455Z,99.99
2022-08-19T08:30:50.751Z,99.99
2022-08-19T08:33:33.558Z,99.99
2022-08-19T08:36:07.702Z,99.99
2022-08-19T08:38:40.114Z,99.99
2022-08-19T08:41:25.642Z,99.99
2022-08-19T08:43:57.583Z,99.99
2022-08-19T08:46:37.257Z,99.99
2022-08-19T08:49:44.319Z,99.99
2022-08-19T08:52:23.956Z,99.99
2022-08-19T08:55:00.581Z,99.99
2022-08-19T08:57:50.898Z,99.99
2022-08-19T09:00:28.918Z,99.99
2022-08-19T09:03:01.562Z,99.99
2022-08-19T09:05:55.443Z,99.99
2022-08-19T09:08:50.797Z,99.99
2022-08-19T09:11:45.104Z,99.99
2022-08-19T09:14:52.053Z,99.99
2022-08-19T09:17:32.872Z,99.99
2022-08-19T09:20:10.531Z,99.99
2022-08-19T09:22:46.010Z,99.99
2022-08-19T09:25:27.075Z,99.99
2022-08-19T09:28:05.659Z,99.99
2022-08-19T09:30:44.325Z,99.99
2022-08-19T09:33:14.921Z,99.99
2022-08-19T09:35:53.355Z,99.99
2022-08-19T09:38:25.152Z,99.99
2022-08-19T09:40:55.303Z,99.99
2022-08-19T09:43:33.833Z,99.99
2022-08-19T09:46:18.101Z,99.99
2022-08-19T09:48:50.583Z,99.99
2022-08-19T09:51:28.272Z,99.99
2022-08-19T09:54:04.785Z,99.99
2022-08-19T09:56:35.823Z,99.99
2022-08-19T09:59:06.849Z,99.99
2022-08-19T10:01:37.482Z,99.99
2022-08-19T10:04:19.692Z,99.99
2022-08-19T10:06:55.372Z,99.99
2022-08-19T10:09:26.232Z,99.99
2022-08-19T10:12:06.580Z,99.99
2022-08-19T10:14:41.604Z,99.99
2022-08-19T10:17:17.899Z,99.99
2022-08-19T10:19:55.280Z,99.99
2022-08-19T10:22:26.612Z,99.99
2022-08-19T10:24:56.979Z,99.99
2022-08-19T10:27:27.877Z,99.99
2022-08-19T10:30:03.313Z,99.99
2022-08-19T10:32:34.559Z,99.99
2022-08-19T10:35:10.186Z,99.99
2022-08-19T10:37:57.223Z,99.99
2022-08-19T10:40:30.236Z,99.99
2022-08-19T10:43:00.822Z,99.99
2022-08-19T10:45:30.762Z,99.99
2022-08-19T10:48:01.387Z,99.99
2022-08-19T10:50:51.547Z,99.99
2022-08-19T10:53:25.990Z,99.99
2022-08-19T10:56:14.747Z,99.99
2022-08-19T10:58:46.859Z,99.99
2022-08-19T11:01:17.771Z,99.99
2022-08-19T11:03:47.819Z,98.92
2022-08-19T11:06:18.081Z,98.31
2022-08-19T11:08:48.396Z,98.34
2022-08-19T11:11:19.308Z,97.72
2022-08-19T11:13:50.232Z,97.10
2022-08-19T11:16:23.961Z,96.38
2022-08-19T11:18:57.035Z,96.04
2022-08-19T11:21:35.184Z,95.52
2022-08-19T11:24:09.523Z,95.19
2022-08-19T11:26:41.742Z,94.49
2022-08-19T11:29:15.247Z,93.48
2022-08-19T11:31:49.358Z,91.40
2022-08-19T11:34:23.362Z,90.72
2022-08-19T11:36:54.964Z,90.82
2022-08-19T11:39:25.378Z,90.96
2022-08-19T11:41:55.601Z,89.79
2022-08-19T11:44:26.595Z,89.19
2022-08-19T11:46:57.690Z,88.58
2022-08-19T11:49:30.774Z,88.79
2022-08-19T11:52:01.276Z,88.53
2022-08-19T11:54:33.119Z,88.45
2022-08-19T11:57:06.279Z,88.42
2022-08-19T11:59:36.943Z,88.43
2022-08-19T12:02:07.524Z,88.55
2022-08-19T12:04:37.737Z,87.93
2022-08-19T12:07:08.659Z,87.94
2022-08-19T12:09:42.142Z,87.29
2022-08-19T12:12:14.135Z,87.57
2022-08-19T12:14:44.678Z,86.55
2022-08-19T12:17:15.570Z,86.19
2022-08-19T12:19:46.758Z,85.66
2022-08-19T12:22:16.948Z,84.81
2022-08-19T12:24:48.184Z,84.70
2022-08-19T12:27:32.345Z,84.65
2022-08-19T12:30:12.117Z,84.02
2022-08-19T12:32:42.812Z,83.55
2022-08-19T12:35:13.702Z,83.18
2022-08-19T12:37:57.104Z,83.14
2022-08-19T12:40:28.728Z,82.62
2022-08-19T12:42:59.093Z,82.36
2022-08-19T12:45:29.796Z,82.78
2022-08-19T12:48:00.619Z,81.05
2022-08-19T12:50:34.395Z,79.87
2022-08-19T12:53:04.413Z,80.52
2022-08-19T12:55:34.802Z,79.67
2022-08-19T12:58:05.215Z,79.28
2022-08-19T13:00:36.324Z,76.40
2022-08-19T13:03:06.622Z,77.46
2022-08-19T13:05:36.823Z,76.67
2022-08-19T13:08:07.675Z,77.08
2022-08-19T13:10:39.342Z,75.99
2022-08-19T13:13:14.554Z,77.10
2022-08-19T13:15:47.356Z,74.87
2022-08-19T13:18:18.148Z,73.96
2022-08-19T13:20:53.102Z,74.52
2022-08-19T13:23:23.946Z,73.90
2022-08-19T13:26:05.669Z,74.52
2022-08-19T13:28:55.159Z,73.38
2022-08-19T13:31:46.352Z,74.15
2022-08-19T13:34:18.908Z,72.56
2022-08-19T13:36:49.409Z,73.11
2022-08-19T13:39:19.451Z,72.67
2022-08-19T13:41:50.770Z,70.90
2022-08-19T13:44:22.780Z,71.45
2022-08-19T13:46:55.574Z,71.93
2022-08-19T13:49:25.788Z,71.13
2022-08-19T13:51:56.126Z,72.15
2022-08-19T13:54:27.240Z,72.03
2022-08-19T13:56:57.910Z,71.41
2022-08-19T13:59:28.270Z,71.15
2022-08-19T14:02:02.654Z,72.12
2022-08-19T14:04:33.484Z,70.89
2022-08-19T14:07:03.895Z,71.19
2022-08-19T14:09:34.402Z,70.38
2022-08-19T14:12:04.763Z,70.67
2022-08-19T14:14:39.274Z,70.31
2022-08-19T14:17:11.427Z,70.41
2022-08-19T14:19:43.277Z,68.41
2022-08-19T14:22:22.447Z,69.08
2022-08-19T14:24:53.212Z,70.64
2022-08-19T14:27:27.412Z,68.54
2022-08-19T14:29:57.521Z,68.69
2022-08-19T14:32:28.955Z,69.57
2022-08-19T14:34:59.724Z,66.45
2022-08-19T14:37:29.723Z,68.68
2022-08-19T14:40:00.271Z,67.98
2022-08-19T14:42:30.916Z,67.33
2022-08-19T14:45:02.334Z,68.51
2022-08-19T14:53:20.254Z,67.10
2022-08-19T14:55:51.545Z,68.39
2022-08-19T14:58:28.489Z,66.23
2022-08-19T15:01:03.372Z,65.10
2022-08-19T15:03:34.319Z,65.75
2022-08-19T15:06:07.364Z,64.76
2022-08-19T15:08:41.240Z,64.43
2022-08-19T15:11:17.880Z,62.73
2022-08-19T15:13:48.722Z,63.95
2022-08-19T15:16:20.377Z,63.95
2022-08-19T15:18:56.047Z,61.86
2022-08-19T15:21:27.958Z,64.43
2022-08-19T15:24:01.203Z,63.76
2022-08-19T15:26:34.383Z,61.97
2022-08-19T15:29:06.215Z,62.29
2022-08-19T15:31:38.140Z,62.34
2022-08-19T15:34:09.717Z,62.90
2022-08-19T15:36:40.427Z,59.93
2022-08-19T15:39:11.696Z,60.46
2022-08-19T15:41:42.328Z,62.95
2022-08-19T15:44:15.914Z,62.35
2022-08-19T15:46:48.421Z,61.07
2022-08-19T15:49:20.680Z,61.13
2022-08-19T15:51:54.227Z,60.24
2022-08-19T15:54:24.832Z,62.10
2022-08-19T15:57:13.785Z,62.34
2022-08-19T16:00:03.282Z,60.63
2022-08-19T16:02:53.715Z,61.79
2022-08-19T16:05:46.474Z,60.95
2022-08-19T16:08:17.382Z,61.64
2022-08-19T16:10:48.627Z,63.89
2022-08-19T16:13:19.336Z,61.38
2022-08-19T16:15:49.848Z,60.07
2022-08-19T16:18:20.683Z,59.47
2022-08-19T16:20:51.189Z,59.88
2022-08-19T16:23:21.600Z,59.01
2022-08-19T16:25:51.753Z,60.30
2022-08-19T16:28:24.034Z,60.87
2022-08-19T16:30:55.067Z,61.45
2022-08-19T16:33:25.357Z,61.59
2022-08-19T16:36:01.703Z,59.44
2022-08-19T16:38:38.842Z,58.02
2022-08-19T16:41:09.926Z,57.14
2022-08-19T16:43:41.248Z,56.75
2022-08-19T16:46:16.014Z,56.88
2022-08-19T16:48:49.796Z,56.78
2022-08-19T16:51:20.233Z,57.64
2022-08-19T16:53:50.927Z,56.68
2022-08-19T16:56:22.467Z,55.95
2022-08-19T16:58:53.420Z,58.16
2022-08-19T17:01:24.395Z,59.09
2022-08-19T17:03:56.269Z,58.76
2022-08-19T17:06:28.877Z,58.23
2022-08-19T17:09:04.431Z,56.74
2022-08-19T17:11:35.399Z,56.95
2022-08-19T17:14:07.974Z,56.82
2022-08-19T17:16:38.324Z,59.69
2022-08-19T17:19:10.102Z,55.79
2022-08-19T17:21:41.929Z,54.17
2022-08-19T17:24:12.228Z,55.27
2022-08-19T17:26:42.656Z,55.94
2022-08-19T17:29:13.778Z,56.17
2022-08-19T17:31:44.613Z,57.10
2022-08-19T17:34:15.143Z,56.33
2022-08-19T17:36:45.365Z,55.32
2022-08-19T17:39:16.119Z,55.76
2022-08-19T17:41:46.869Z,55.78
2022-08-19T17:44:17.020Z,56.26
2022-08-19T17:46:48.010Z,55.52
2022-08-19T17:49:19.122Z,56.96
2022-08-19T17:51:51.221Z,54.91
2022-08-19T17:54:22.556Z,53.51
2022-08-19T17:56:53.438Z,52.06
2022-08-19T17:59:24.287Z,53.78
2022-08-19T18:01:59.981Z,54.42
2022-08-19T18:04:31.044Z,56.70
2022-08-19T18:07:05.572Z,56.50
2022-08-19T18:09:43.039Z,55.44
2022-08-19T18:12:25.985Z,55.09
2022-08-19T18:14:56.535Z,57.49
2022-08-19T18:17:27.321Z,55.44
2022-08-19T18:19:59.281Z,53.83
2022-08-19T18:22:37.597Z,54.78
2022-08-19T18:25:13.196Z,54.97
2022-08-19T18:27:44.590Z,56.72
2022-08-19T18:30:15.970Z,56.87
2022-08-19T18:32:48.030Z,57.24
2022-08-19T18:35:22.598Z,56.41
2022-08-19T18:37:52.854Z,57.12
2022-08-19T18:40:43.726Z,54.74
2022-08-19T18:43:33.033Z,55.94
2022-08-19T18:46:21.673Z,56.70
2022-08-19T18:49:06.416Z,57.09
2022-08-19T18:51:37.374Z,55.20
2022-08-19T18:54:08.083Z,56.25
2022-08-19T18:56:40.630Z,57.05
2022-08-19T18:59:11.196Z,57.08
2022-08-19T19:01:51.970Z,57.07
2022-08-19T19:04:25.554Z,57.32
2022-08-19T19:06:56.505Z,57.26
2022-08-19T19:09:28.059Z,57.00
2022-08-19T19:12:02.267Z,57.19
2022-08-19T19:14:49.110Z,56.92
2022-08-19T19:17:27.092Z,56.52
2022-08-19T19:19:57.307Z,56.42
2022-08-19T19:22:27.726Z,56.27
2022-08-19T19:25:00.565Z,57.30
2022-08-19T19:27:30.730Z,57.55
2022-08-19T19:30:00.661Z,56.84
2022-08-19T19:32:38.977Z,57.99
2022-08-19T19:35:13.696Z,58.13
2022-08-19T19:37:44.918Z,58.33
2022-08-19T19:40:14.996Z,58.44
2022-08-19T19:42:44.967Z,57.61
2022-08-19T19:45:16.005Z,58.80
2022-08-19T19:47:51.314Z,58.58
2022-08-19T19:50:22.254Z,58.20
2022-08-19T19:52:56.357Z,58.59
2022-08-19T19:55:27.979Z,59.20
2022-08-19T19:58:01.225Z,57.95
2022-08-19T20:00:32.313Z,59.52
2022-08-19T20:03:02.460Z,60.05
2022-08-19T20:05:32.360Z,59.44
2022-08-19T20:08:20.537Z,59.66
2022-08-19T20:10:51.195Z,59.64
2022-08-19T20:13:21.778Z,60.14
2022-08-19T20:15:51.977Z,60.86
2022-08-19T20:18:22.706Z,60.90
2022-08-19T20:20:53.831Z,60.64
2022-08-19T20:23:25.540Z,61.60
2022-08-19T20:25:55.776Z,60.67
2022-08-19T20:28:25.854Z,62.10
2022-08-19T20:30:56.601Z,61.07
2022-08-19T20:33:26.996Z,60.89
2022-08-19T20:35:58.264Z,61.50
2022-08-19T20:38:28.424Z,61.77
2022-08-19T20:40:58.295Z,62.53
2022-08-19T20:43:28.505Z,62.63
2022-08-19T20:45:58.714Z,63.44
2022-08-19T20:48:29.191Z,65.58
2022-08-19T20:50:59.746Z,65.91
2022-08-19T20:53:30.244Z,66.73
2022-08-19T20:56:00.475Z,68.39
2022-08-19T20:58:30.982Z,70.25
2022-08-19T21:01:03.802Z,71.05
2022-08-19T21:03:42.508Z,72.70
2022-08-19T21:06:15.213Z,73.66
2022-08-19T21:08:45.533Z,75.54
2022-08-19T21:11:20.496Z,77.02
2022-08-19T21:13:53.931Z,77.79
2022-08-19T21:16:24.551Z,78.28
2022-08-19T21:18:54.762Z,79.10
2022-08-19T21:21:25.258Z,79.91
2022-08-19T21:23:55.210Z,81.27
2022-08-19T21:26:25.658Z,82.77
2022-08-19T21:28:55.633Z,83.18
2022-08-19T21:31:26.244Z,82.72
2022-08-19T21:33:57.053Z,83.60
2022-08-19T21:36:27.148Z,84.68
2022-08-19T21:38:56.990Z,85.35
2022-08-19T21:41:27.275Z,85.57
2022-08-19T21:43:58.059Z,86.24
2022-08-19T21:46:29.651Z,86.92
2022-08-19T21:48:59.728Z,87.64
2022-08-19T21:51:29.604Z,88.17
2022-08-19T21:54:00.613Z,88.32
2022-08-19T21:56:30.810Z,89.07
2022-08-19T21:59:01.077Z,89.50
2022-08-19T22:01:31.501Z,89.99
2022-08-19T22:04:02.275Z,89.97
2022-08-19T22:06:35.912Z,90.51
2022-08-19T22:09:06.626Z,90.69
2022-08-19T22:11:36.745Z,90.76
2022-08-19T22:14:07.517Z,91.14
2022-08-19T22:16:38.070Z,91.27
2022-08-19T22:19:09.186Z,91.76
2022-08-19T22:21:41.052Z,92.38
2022-08-19T22:24:12.133Z,92.86
2022-08-19T22:26:42.606Z,93.53
2022-08-19T22:29:17.159Z,93.73
2022-08-19T22:31:54.289Z,94.54
2022-08-19T22:34:29.783Z,94.68
2022-08-19T22:37:00.524Z,94.97
2022-08-19T22:39:30.374Z,95.18
2022-08-19T22:42:00.566Z,95.76
2022-08-19T22:44:31.221Z,96.18
2022-08-19T22:47:01.917Z,96.62
2022-08-19T22:49:32.085Z,96.78
2022-08-19T22:52:19.490Z,97.34
2022-08-19T22:54:56.012Z,97.41
2022-08-19T22:57:26.602Z,96.99
2022-08-19T23:00:01.123Z,97.38
2022-08-19T23:02:51.757Z,97.63
2022-08-19T23:05:25.390Z,97.66
2022-08-19T23:07:58.522Z,97.81
2022-08-19T23:10:30.184Z,98.03
2022-08-19T23:13:01.273Z,98.45
2022-08-19T23:15:34.033Z,98.09
2022-08-19T23:18:06.616Z,98.06
2022-08-19T23:20:40.237Z,98.50
2022-08-19T23:23:15.677Z,98.87
2022-08-19T23:25:45.775Z,99.06
2022-08-19T23:28:34.729Z,99.12
2022-08-19T23:31:07.190Z,98.75
2022-08-19T23:33:51.018Z,98.90
2022-08-19T23:36:23.759Z,98.68
2022-08-19T23:38:54.291Z,98.37
2022-08-19T23:41:24.910Z,98.52
2022-08-19T23:43:55.955Z,98.46
2022-08-19T23:46:28.305Z,98.48
2022-08-19T23:48:59.539Z,98.66
2022-08-19T23:51:29.974Z,98.91
2022-08-19T23:54:00.397Z,99.18
2022-08-19T23:56:30.307Z,99.34
2022-08-19T23:59:00.912Z,99.54
